createdAt,value
2023-02-19T00:02:12.608Z,3.30
2023-02-19T00:05:14.822Z,3.60
2023-02-19T00:08:17.137Z,2.22
2023-02-19T00:11:21.370Z,2.00
2023-02-19T00:14:23.649Z,4.25
2023-02-19T00:17:25.801Z,2.40
2023-02-19T00:20:28.072Z,2.70
2023-02-19T00:23:30.484Z,2.95
2023-02-19T00:26:33.015Z,1.60
2023-02-19T00:29:35.228Z,3.03
2023-02-19T00:32:37.453Z,3.72
2023-02-19T00:35:39.647Z,2.07
2023-02-19T00:38:42.659Z,1.73
2023-02-19T00:41:46.549Z,2.03
2023-02-19T00:44:48.947Z,2.50
2023-02-19T00:47:51.179Z,2.38
2023-02-19T00:50:53.363Z,1.97
2023-02-19T00:53:56.068Z,2.42
2023-02-19T00:56:58.279Z,2.90
2023-02-19T01:00:00.495Z,2.10
2023-02-19T01:03:02.598Z,1.23
2023-02-19T01:06:05.484Z,2.03
2023-02-19T01:09:07.964Z,1.98
2023-02-19T01:12:10.207Z,2.42
2023-02-19T01:15:12.574Z,1.85
2023-02-19T01:18:14.951Z,1.30
2023-02-19T01:21:25.177Z,2.90
2023-02-19T01:24:27.369Z,1.73
2023-02-19T01:27:29.799Z,1.50
2023-02-19T01:30:34.140Z,1.50
2023-02-19T01:33:36.361Z,1.73
2023-02-19T01:36:38.944Z,2.13
2023-02-19T01:39:43.286Z,1.08
2023-02-19T01:42:45.614Z,1.60
2023-02-19T01:45:47.826Z,2.35
2023-02-19T01:48:50.019Z,1.75
2023-02-19T01:52:04.351Z,2.27
2023-02-19T01:55:07.807Z,1.70
2023-02-19T01:58:10.440Z,1.40
2023-02-19T02:01:14.057Z,1.88
2023-02-19T02:04:17.224Z,2.70
2023-02-19T02:07:38.075Z,2.47
2023-02-19T02:10:40.238Z,2.65
2023-02-19T02:13:42.659Z,2.15
2023-02-19T02:16:44.853Z,1.98
2023-02-19T02:20:05.850Z,2.70
2023-02-19T02:23:14.053Z,2.00
2023-02-19T02:26:25.810Z,1.67
2023-02-19T02:29:46.845Z,1.27
2023-02-19T02:32:58.174Z,2.20
2023-02-19T02:36:03.397Z,1.35
2023-02-19T02:39:10.397Z,4.00
2023-02-19T02:42:28.583Z,1.50
2023-02-19T02:45:48.980Z,1.52
2023-02-19T02:49:01.906Z,0.95
2023-02-19T02:52:24.218Z,1.83
2023-02-19T02:55:30.109Z,1.20
2023-02-19T02:58:34.009Z,1.55
2023-02-19T03:02:19.268Z,0.68
2023-02-19T03:05:42.802Z,1.10
2023-02-19T03:08:45.654Z,1.00
2023-02-19T03:12:08.923Z,0.70
2023-02-19T03:15:32.388Z,1.50
2023-02-19T03:18:54.332Z,1.13
2023-02-19T03:22:02.925Z,1.70
2023-02-19T03:25:35.798Z,1.40
2023-02-19T03:28:57.871Z,1.30
2023-02-19T03:32:10.511Z,2.22
2023-02-19T03:35:18.640Z,2.08
2023-02-19T03:38:25.433Z,2.25
2023-02-19T03:41:31.579Z,2.47
2023-02-19T03:44:34.474Z,1.33
2023-02-19T03:47:53.314Z,2.13
2023-02-19T03:51:05.515Z,2.00
2023-02-19T03:54:27.240Z,1.90
2023-02-19T03:57:36.574Z,1.77
2023-02-19T04:00:57.642Z,0.80
2023-02-19T04:04:02.951Z,1.98
2023-02-19T04:07:05.703Z,2.70
2023-02-19T04:10:11.338Z,1.17
2023-02-19T04:13:31.755Z,1.33
2023-02-19T04:16:35.001Z,1.90
2023-02-19T04:19:38.793Z,1.25
2023-02-19T04:22:41.886Z,2.38
2023-02-19T04:25:45.662Z,1.90
2023-02-19T04:28:48.136Z,2.97
2023-02-19T04:31:50.440Z,1.67
2023-02-19T04:34:54.344Z,1.58
2023-02-19T04:37:56.575Z,1.33
2023-02-19T04:40:58.726Z,1.23
2023-02-19T04:44:00.857Z,1.05
2023-02-19T04:47:02.988Z,1.07
2023-02-19T04:50:05.357Z,1.50
2023-02-19T04:53:07.756Z,1.77
2023-02-19T04:56:11.564Z,1.92
2023-02-19T04:59:13.778Z,1.50
2023-02-19T05:02:15.995Z,1.47
2023-02-19T05:05:18.203Z,1.55
2023-02-19T05:08:20.500Z,2.20
2023-02-19T05:11:23.883Z,2.17
2023-02-19T05:14:26.096Z,1.42
2023-02-19T05:17:28.250Z,1.37
2023-02-19T05:20:30.419Z,2.08
2023-02-19T05:23:32.706Z,1.67
2023-02-19T05:26:35.139Z,1.77
2023-02-19T05:29:37.494Z,1.15
2023-02-19T05:32:39.696Z,2.23
2023-02-19T05:35:42.445Z,0.90
2023-02-19T05:38:44.612Z,1.10
2023-02-19T05:41:46.863Z,1.08
2023-02-19T05:44:49.050Z,2.03
2023-02-19T05:47:51.354Z,2.30
2023-02-19T05:50:53.541Z,1.65
2023-02-19T05:53:56.429Z,3.30
2023-02-19T05:56:58.974Z,2.80
2023-02-19T06:00:01.125Z,1.65
2023-02-19T06:03:03.498Z,3.03
2023-02-19T06:06:05.898Z,2.78
2023-02-19T06:09:08.821Z,2.33
2023-02-19T06:12:10.963Z,2.33
2023-02-19T06:15:13.163Z,3.40
2023-02-19T06:18:15.391Z,3.77
2023-02-19T06:21:18.366Z,4.50
2023-02-19T06:24:20.613Z,3.38
2023-02-19T06:27:22.868Z,3.38
2023-02-19T06:30:25.412Z,3.95
2023-02-19T06:33:28.177Z,4.23
2023-02-19T06:36:31.430Z,4.20
2023-02-19T06:39:33.634Z,5.57
2023-02-19T06:42:35.802Z,7.28
2023-02-19T06:45:37.982Z,8.15
2023-02-19T06:48:41.243Z,8.77
2023-02-19T06:51:43.464Z,10.13
2023-02-19T06:54:45.662Z,12.27
2023-02-19T06:57:47.838Z,9.88
2023-02-19T07:00:50.098Z,12.30
2023-02-19T07:03:52.804Z,13.13
2023-02-19T07:06:55.009Z,13.93
2023-02-19T07:09:57.142Z,16.23
2023-02-19T07:12:59.275Z,15.75
2023-02-19T07:16:02.495Z,17.05
2023-02-19T07:19:04.771Z,16.03
2023-02-19T07:22:06.975Z,16.75
2023-02-19T07:25:09.151Z,16.60
2023-02-19T07:28:11.391Z,18.55
2023-02-19T07:31:14.346Z,20.00
2023-02-19T07:34:16.648Z,17.97
2023-02-19T07:37:18.797Z,22.25
2023-02-19T07:40:21.012Z,22.98
2023-02-19T07:43:24.001Z,20.15
2023-02-19T07:46:28.090Z,23.25
2023-02-19T07:49:30.317Z,21.67
2023-02-19T07:52:33.912Z,22.70
2023-02-19T07:55:36.152Z,24.00
2023-02-19T07:58:38.477Z,24.55
2023-02-19T08:01:59.372Z,22.58
2023-02-19T08:05:01.529Z,22.33
2023-02-19T08:08:06.099Z,22.17
2023-02-19T08:11:26.927Z,23.50
2023-02-19T08:14:29.300Z,21.20
2023-02-19T08:17:31.453Z,19.20
2023-02-19T08:20:33.668Z,19.77
2023-02-19T08:23:36.137Z,23.67
2023-02-19T08:26:38.350Z,19.63
2023-02-19T08:29:40.652Z,21.60
2023-02-19T08:32:42.862Z,19.63
2023-02-19T08:35:45.435Z,22.80
2023-02-19T08:38:47.805Z,21.63
2023-02-19T08:41:50.654Z,21.55
2023-02-19T08:44:52.880Z,23.88
2023-02-19T08:47:55.044Z,22.73
2023-02-19T08:50:58.314Z,20.33
2023-02-19T08:54:02.118Z,25.52
2023-02-19T08:57:05.246Z,18.70
2023-02-19T09:00:09.045Z,20.02
2023-02-19T09:03:11.531Z,17.27
2023-02-19T09:06:15.707Z,23.10
2023-02-19T09:09:17.957Z,22.38
2023-02-19T09:12:20.587Z,21.52
2023-02-19T09:15:22.920Z,23.63
2023-02-19T09:18:26.251Z,22.83
2023-02-19T09:21:28.584Z,25.10
2023-02-19T09:24:31.113Z,25.02
2023-02-19T09:27:33.691Z,23.30
2023-02-19T09:30:36.077Z,24.50
2023-02-19T09:33:38.274Z,24.00
2023-02-19T09:36:40.620Z,25.67
2023-02-19T09:39:42.946Z,28.65
2023-02-19T09:42:45.193Z,30.83
2023-02-19T09:45:48.127Z,25.98
2023-02-19T09:48:51.299Z,26.05
2023-02-19T09:51:58.554Z,27.70
2023-02-19T09:55:09.986Z,29.38
2023-02-19T09:58:22.327Z,24.98
2023-02-19T10:01:26.439Z,28.30
2023-02-19T10:04:28.666Z,28.02
2023-02-19T10:07:37.443Z,28.37
2023-02-19T10:10:39.747Z,27.67
2023-02-19T10:13:44.051Z,26.95
2023-02-19T10:16:48.390Z,27.08
2023-02-19T10:19:51.605Z,27.80
2023-02-19T10:22:57.820Z,29.50
2023-02-19T10:26:01.401Z,26.50
2023-02-19T10:29:04.166Z,23.95
2023-02-19T10:32:13.509Z,23.40
2023-02-19T10:35:16.551Z,24.08
2023-02-19T10:38:20.627Z,20.10
2023-02-19T10:41:24.955Z,20.25
2023-02-19T10:44:35.341Z,19.00
2023-02-19T10:47:37.520Z,20.38
2023-02-19T10:50:47.008Z,18.27
2023-02-19T10:53:50.311Z,15.47
2023-02-19T10:56:52.541Z,17.83
2023-02-19T10:59:58.706Z,18.90
2023-02-19T11:03:33.323Z,15.68
2023-02-19T11:06:35.563Z,14.95
2023-02-19T11:09:39.663Z,15.53
2023-02-19T11:12:47.217Z,10.45
2023-02-19T11:15:54.348Z,12.75
2023-02-19T11:18:57.303Z,12.07
2023-02-19T11:22:00.628Z,12.02
2023-02-19T11:25:07.813Z,3.83
2023-02-19T11:28:23.752Z,3.78
2023-02-19T11:31:26.128Z,2.95
2023-02-19T11:34:34.935Z,3.45
2023-02-19T11:37:37.276Z,3.25
2023-02-19T11:40:50.436Z,3.50
2023-02-19T11:44:00.366Z,3.40
2023-02-19T11:47:21.298Z,4.45
2023-02-19T11:50:30.308Z,3.70
2023-02-19T11:53:33.336Z,3.47
2023-02-19T11:56:40.861Z,2.80
2023-02-19T11:59:48.518Z,5.10
2023-02-19T12:03:09.705Z,5.20
2023-02-19T12:06:27.378Z,4.30
2023-02-19T12:09:38.870Z,3.55
2023-02-19T12:12:59.934Z,3.67
2023-02-19T12:16:02.193Z,3.38
2023-02-19T12:19:24.327Z,4.25
2023-02-19T12:22:30.707Z,3.65
2023-02-19T12:25:51.678Z,3.75
2023-02-19T12:29:12.643Z,3.47
2023-02-19T12:32:20.922Z,3.72
2023-02-19T12:35:26.163Z,4.68
2023-02-19T12:38:46.266Z,4.28
2023-02-19T12:42:07.733Z,3.50
2023-02-19T12:45:20.258Z,3.63
2023-02-19T12:48:25.744Z,2.85
2023-02-19T12:51:31.947Z,3.63
2023-02-19T12:54:35.428Z,4.35
2023-02-19T12:57:39.046Z,6.43
2023-02-19T13:00:43.578Z,4.57
2023-02-19T13:04:09.092Z,3.15
2023-02-19T13:07:17.345Z,2.60
2023-02-19T13:10:26.998Z,3.45
2023-02-19T13:13:31.964Z,3.03
2023-02-19T13:16:37.237Z,1.47
2023-02-19T13:19:39.997Z,2.15
2023-02-19T13:23:08.789Z,1.85
2023-02-19T13:26:17.252Z,1.67
2023-02-19T13:29:38.290Z,2.13
2023-02-19T13:33:02.528Z,1.87
2023-02-19T13:36:09.770Z,2.80
2023-02-19T13:42:23.349Z,1.80
2023-02-19T13:45:31.598Z,1.80
2023-02-19T13:48:35.286Z,1.73
2023-02-19T13:51:38.741Z,1.95
2023-02-19T13:54:41.049Z,1.33
2023-02-19T13:57:44.941Z,1.60
2023-02-19T14:00:49.461Z,3.25
2023-02-19T14:04:06.690Z,2.63
2023-02-19T14:07:08.910Z,1.50
2023-02-19T14:10:13.088Z,2.53
2023-02-19T14:13:35.398Z,1.75
2023-02-19T14:16:41.166Z,1.70
2023-02-19T14:19:52.652Z,2.63
2023-02-19T14:23:08.645Z,1.92
2023-02-19T14:26:11.151Z,1.08
2023-02-19T14:29:14.821Z,3.85
2023-02-19T14:32:19.396Z,1.90
2023-02-19T14:35:22.958Z,1.47
2023-02-19T14:38:39.506Z,1.60
2023-02-19T14:41:43.995Z,0.80
2023-02-19T14:44:52.535Z,0.73
2023-02-19T14:47:56.294Z,1.02
2023-02-19T14:51:03.964Z,0.30
2023-02-19T14:54:29.733Z,1.10
2023-02-19T14:57:35.787Z,0.77
2023-02-19T15:00:39.710Z,1.17
2023-02-19T15:03:42.178Z,1.02
2023-02-19T15:06:44.497Z,0.67
2023-02-19T15:09:48.865Z,0.80
2023-02-19T15:12:55.811Z,1.40
2023-02-19T15:15:58.421Z,1.85
2023-02-19T15:19:00.818Z,1.75
2023-02-19T15:22:03.360Z,2.73
2023-02-19T15:25:06.285Z,0.95
2023-02-19T15:28:23.949Z,0.43
2023-02-19T15:31:26.393Z,0.90
2023-02-19T15:34:30.170Z,0.80
2023-02-19T15:37:33.810Z,1.57
2023-02-19T15:40:36.695Z,0.90
2023-02-19T15:43:44.472Z,0.82
2023-02-19T15:46:47.183Z,2.90
2023-02-19T15:50:09.554Z,1.55
2023-02-19T15:53:16.848Z,1.40
2023-02-19T15:56:28.078Z,0.95
2023-02-19T15:59:33.658Z,1.25
2023-02-19T16:02:36.132Z,0.52
2023-02-19T16:05:40.049Z,1.15
2023-02-19T16:08:43.510Z,1.03
2023-02-19T16:11:56.641Z,0.88
2023-02-19T16:14:58.809Z,1.15
2023-02-19T16:18:01.321Z,0.70
2023-02-19T16:21:05.766Z,1.63
2023-02-19T16:24:17.759Z,1.60
2023-02-19T16:27:49.178Z,1.85
2023-02-19T16:30:59.081Z,1.20
2023-02-19T16:34:16.259Z,1.20
2023-02-19T16:37:37.817Z,1.83
2023-02-19T16:40:43.322Z,1.10
2023-02-19T16:43:45.887Z,0.60
2023-02-19T16:46:52.054Z,0.82
2023-02-19T16:49:57.201Z,1.00
2023-02-19T16:53:01.097Z,0.93
2023-02-19T16:56:04.013Z,0.70
2023-02-19T16:59:09.276Z,0.88
2023-02-19T17:02:16.730Z,1.58
2023-02-19T17:05:19.865Z,1.67
2023-02-19T17:08:35.102Z,0.80
2023-02-19T17:11:37.379Z,1.03
2023-02-19T17:14:39.718Z,2.28
2023-02-19T17:17:42.125Z,2.30
2023-02-19T17:20:48.070Z,1.92
2023-02-19T17:23:50.901Z,3.17
2023-02-19T17:26:53.305Z,1.30
2023-02-19T17:29:55.671Z,1.38
2023-02-19T17:32:58.191Z,1.33
2023-02-19T17:36:00.576Z,0.82
2023-02-19T17:39:04.109Z,0.93
2023-02-19T17:42:06.395Z,1.63
2023-02-19T17:45:09.816Z,1.25
2023-02-19T17:48:13.545Z,1.75
2023-02-19T17:51:15.973Z,1.25
2023-02-19T17:54:18.337Z,0.85
2023-02-19T17:57:20.790Z,1.80
2023-02-19T18:00:24.651Z,1.58
2023-02-19T18:03:27.113Z,0.68
2023-02-19T18:06:29.554Z,1.67
2023-02-19T18:09:31.895Z,1.25
2023-02-19T18:12:34.300Z,1.83
2023-02-19T18:15:36.706Z,2.08
2023-02-19T18:18:40.450Z,1.40
2023-02-19T18:21:42.786Z,1.20
2023-02-19T18:24:46.458Z,2.22
2023-02-19T18:27:48.895Z,1.40
2023-02-19T18:30:51.335Z,1.17
2023-02-19T18:33:53.755Z,1.90
2023-02-19T18:36:56.167Z,2.78
2023-02-19T18:39:59.484Z,1.10
2023-02-19T18:43:01.923Z,1.07
2023-02-19T18:46:06.841Z,2.13
2023-02-19T18:49:09.231Z,1.63
2023-02-19T18:52:12.346Z,1.92
2023-02-19T18:55:14.731Z,1.25
2023-02-19T18:58:17.207Z,1.87
2023-02-19T19:01:19.684Z,1.83
2023-02-19T19:04:22.180Z,1.98
2023-02-19T19:07:24.646Z,2.10
2023-02-19T19:10:27.645Z,2.40
2023-02-19T19:13:30.015Z,2.13
2023-02-19T19:16:33.742Z,1.92
2023-02-19T19:19:35.958Z,2.20
2023-02-19T19:22:38.289Z,1.73
2023-02-19T19:25:40.692Z,1.88
2023-02-19T19:28:46.659Z,1.60
2023-02-19T19:31:49.535Z,2.38
2023-02-19T19:34:52.293Z,2.88
2023-02-19T19:37:54.690Z,2.85
2023-02-19T19:40:57.040Z,1.77
2023-02-19T19:44:02.281Z,2.60
2023-02-19T19:47:04.786Z,2.55
2023-02-19T19:50:07.085Z,2.55
2023-02-19T19:53:09.926Z,2.42
2023-02-19T19:56:12.366Z,2.97
2023-02-19T19:59:16.288Z,2.83
2023-02-19T20:02:18.931Z,2.88
2023-02-19T20:05:21.414Z,2.25
2023-02-19T20:08:24.138Z,2.88
2023-02-19T20:11:26.582Z,3.47
2023-02-19T20:14:29.043Z,2.37
2023-02-19T20:17:31.403Z,3.53
2023-02-19T20:20:33.878Z,3.85
2023-02-19T20:23:37.694Z,2.60
2023-02-19T20:26:40.079Z,2.85
2023-02-19T20:29:44.560Z,2.13
2023-02-19T20:32:48.144Z,3.55
2023-02-19T20:35:50.264Z,1.42
2023-02-19T20:38:52.629Z,1.65
2023-02-19T20:41:55.331Z,1.67
2023-02-19T20:44:57.731Z,2.40
2023-02-19T20:48:00.511Z,3.03
2023-02-19T20:51:02.870Z,1.20
2023-02-19T20:54:05.104Z,1.70
2023-02-19T20:57:07.487Z,2.28
2023-02-19T21:00:11.242Z,1.33
2023-02-19T21:03:13.533Z,1.27
2023-02-19T21:06:15.953Z,2.08
2023-02-19T21:09:18.812Z,1.33
2023-02-19T21:12:22.165Z,1.52
2023-02-19T21:15:24.555Z,1.10
2023-02-19T21:18:26.974Z,2.47
2023-02-19T21:21:31.284Z,1.38
2023-02-19T21:24:33.646Z,1.33
2023-02-19T21:27:36.484Z,2.38
2023-02-19T21:30:38.741Z,1.83
2023-02-19T21:33:41.023Z,2.35
2023-02-19T21:36:43.235Z,1.00
2023-02-19T21:39:45.684Z,1.10
2023-02-19T21:42:47.954Z,1.83
2023-02-19T21:45:50.332Z,2.40
2023-02-19T21:48:53.312Z,5.38
2023-02-19T21:51:55.530Z,1.92
2023-02-19T21:54:58.016Z,1.98
2023-02-19T21:58:00.298Z,2.60
2023-02-19T22:01:02.491Z,2.23
2023-02-19T22:04:06.079Z,1.77
2023-02-19T22:07:08.247Z,1.08
2023-02-19T22:10:10.508Z,2.22
2023-02-19T22:13:12.958Z,2.63
2023-02-19T22:16:15.366Z,3.00
2023-02-19T22:19:17.610Z,2.05
2023-02-19T22:22:19.761Z,3.35
2023-02-19T22:25:21.989Z,3.25
2023-02-19T22:28:24.275Z,3.42
2023-02-19T22:31:27.380Z,2.90
2023-02-19T22:34:29.714Z,1.40
2023-02-19T22:37:31.927Z,2.78
2023-02-19T22:40:34.092Z,2.42
2023-02-19T22:43:36.444Z,2.83
2023-02-19T22:46:38.620Z,2.37
2023-02-19T22:49:42.094Z,2.10
2023-02-19T22:52:45.981Z,2.17
2023-02-19T22:55:48.119Z,3.10
2023-02-19T22:58:50.598Z,2.17
2023-02-19T23:01:53.332Z,2.20
2023-02-19T23:04:55.543Z,2.13
2023-02-19T23:07:57.743Z,1.23
2023-02-19T23:10:59.888Z,2.28
2023-02-19T23:14:02.419Z,2.92
2023-02-19T23:17:04.654Z,1.60
2023-02-19T23:20:07.288Z,2.28
2023-02-19T23:23:09.500Z,2.22
2023-02-19T23:26:12.703Z,2.38
2023-02-19T23:29:16.101Z,2.25
2023-02-19T23:32:21.019Z,4.80
2023-02-19T23:35:23.520Z,2.78
2023-02-19T23:38:25.631Z,2.60
2023-02-19T23:41:27.766Z,2.05
2023-02-19T23:44:29.975Z,2.15
2023-02-19T23:47:32.280Z,1.00
2023-02-19T23:50:34.420Z,2.45
2023-02-19T23:53:36.573Z,4.47
2023-02-19T23:56:38.785Z,3.50
2023-02-19T23:59:40.930Z,2.42
